Stella Ada — 9V9082 — position and weather

sailwx.info

Track history (hours):
 
Tides and Currents Weather Stations Pressure Air Temp Water Temp Dewpoint Dewpoint Depression Visibility Wind Speed Wind Dir Waves Ship Positions

Stella Ada

Last reported at 2017-Aug-20 00:30 UTC. Time now 2017-Aug-21 01:01 UTC.
Position N 30°37' E 123°20'.

Length 296 m; draft 17.8 m.

Type: Cargo ship. MMSI: 566089000.

Date/timePositionNaut miles runAvg speedWind from/ knotsBaromVisibWave heightAir tempDewpointWater temp
2017-Aug-20 00:30N 30°37' E 123°20'2212.0
2017-Aug-19 22:42N 30°15' E 123°20'1011.7
2017-Aug-19 21:50N 30°05' E 123°19'411.2
2017-Aug-19 21:29N 30°01' E 123°19'610.9
2017-Aug-19 20:54N 29°55' E 123°19'4910.9
2017-Aug-19 16:26N 29°06' E 123°16'  
2017-Aug-12 09:26N 01°16' E 104°11'511.9
2017-Aug-12 08:58N 01°15' E 104°06'611.6
2017-Aug-12 08:28N 01°14' E 104°00'511.2
2017-Aug-12 08:00N 01°13' E 103°55'611.2
2017-Aug-12 07:30N 01°11' E 103°50'510.6
2017-Aug-12 07:00N 01°08' E 103°46'510.6
2017-Aug-12 06:30N 01°05' E 103°41'510.1
2017-Aug-12 05:59N 01°04' E 103°36'612.4
2017-Aug-12 05:30N 01°07' E 103°31'612.2
2017-Aug-12 04:59N 01°10' E 103°25'612.8
2017-Aug-12 04:29N 01°15' E 103°21'  
Track history (hours):
 
Tides and Currents Weather Stations Pressure Air Temp Water Temp Dewpoint Dewpoint Depression Visibility Wind Speed Wind Dir Waves Ship Positions

Stella Ada

Last reported at 2017-Aug-20 00:30 UTC. Time now 2017-Aug-21 01:01 UTC.
Position N 30°37' E 123°20'.

Length 296 m; draft 17.8 m.

Type: Cargo ship. MMSI: 566089000.

Date/timePositionNaut miles runAvg speedWind from/ knotsBaromVisibWave heightAir tempDewpointWater temp
2017-Aug-20 00:30N 30°37' E 123°20'2212.0
2017-Aug-19 22:42N 30°15' E 123°20'1011.7
2017-Aug-19 21:50N 30°05' E 123°19'411.2
2017-Aug-19 21:29N 30°01' E 123°19'610.9
2017-Aug-19 20:54N 29°55' E 123°19'4910.9
2017-Aug-19 16:26N 29°06' E 123°16'  
2017-Aug-12 09:26N 01°16' E 104°11'511.9
2017-Aug-12 08:58N 01°15' E 104°06'611.6
2017-Aug-12 08:28N 01°14' E 104°00'511.2
2017-Aug-12 08:00N 01°13' E 103°55'611.2
2017-Aug-12 07:30N 01°11' E 103°50'510.6
2017-Aug-12 07:00N 01°08' E 103°46'510.6
2017-Aug-12 06:30N 01°05' E 103°41'510.1
2017-Aug-12 05:59N 01°04' E 103°36'612.4
2017-Aug-12 05:30N 01°07' E 103°31'612.2
2017-Aug-12 04:59N 01°10' E 103°25'612.8
2017-Aug-12 04:29N 01°15' E 103°21'  

Dump ship's entire track history